sensor_id;sensor_type;location;lat;lon;timestamp;P1;durP1;ratioP1;P2;durP2;ratioP2
40601;SDS011;26310;50.278;19.032;2023-01-29T00:02:33;7.23;;;5.27;;
40601;SDS011;26310;50.278;19.032;2023-01-29T00:07:37;7.90;;;4.03;;
40601;SDS011;26310;50.278;19.032;2023-01-29T00:12:40;5.50;;;3.73;;
40601;SDS011;26310;50.278;19.032;2023-01-29T00:17:42;5.73;;;4.13;;
40601;SDS011;26310;50.278;19.032;2023-01-29T00:22:45;5.73;;;4.47;;
40601;SDS011;26310;50.278;19.032;2023-01-29T00:27:48;7.63;;;4.87;;
40601;SDS011;26310;50.278;19.032;2023-01-29T05:31:44;3.07;;;2.70;;
40601;SDS011;26310;50.278;19.032;2023-01-29T05:36:47;2.90;;;2.70;;
40601;SDS011;26310;50.278;19.032;2023-01-29T05:41:50;3.27;;;2.97;;
40601;SDS011;26310;50.278;19.032;2023-01-29T05:46:52;3.40;;;3.10;;
40601;SDS011;26310;50.278;19.032;2023-01-29T05:51:55;3.67;;;2.87;;
40601;SDS011;26310;50.278;19.032;2023-01-29T05:56:58;3.73;;;3.27;;
40601;SDS011;26310;50.278;19.032;2023-01-29T06:02:01;4.40;;;2.77;;
40601;SDS011;26310;50.278;19.032;2023-01-29T06:07:04;5.90;;;2.57;;
40601;SDS011;26310;50.278;19.032;2023-01-29T06:12:07;5.93;;;3.73;;
40601;SDS011;26310;50.278;19.032;2023-01-29T06:17:10;3.07;;;2.77;;
40601;SDS011;26310;50.278;19.032;2023-01-29T06:22:13;4.63;;;3.33;;
40601;SDS011;26310;50.278;19.032;2023-01-29T06:27:16;2.63;;;2.43;;
40601;SDS011;26310;50.278;19.032;2023-01-29T06:32:18;3.53;;;3.07;;
40601;SDS011;26310;50.278;19.032;2023-01-29T06:37:21;3.00;;;2.63;;
40601;SDS011;26310;50.278;19.032;2023-01-29T06:42:24;8.47;;;4.00;;
40601;SDS011;26310;50.278;19.032;2023-01-29T06:47:28;8.13;;;4.37;;
40601;SDS011;26310;50.278;19.032;2023-01-29T06:52:31;7.67;;;2.93;;
40601;SDS011;26310;50.278;19.032;2023-01-29T06:57:34;7.50;;;4.00;;
40601;SDS011;26310;50.278;19.032;2023-01-29T07:02:37;6.20;;;3.73;;
40601;SDS011;26310;50.278;19.032;2023-01-29T07:07:40;4.47;;;3.90;;
40601;SDS011;26310;50.278;19.032;2023-01-29T07:12:43;7.40;;;4.23;;
40601;SDS011;26310;50.278;19.032;2023-01-29T07:17:56;5.93;;;3.30;;
40601;SDS011;26310;50.278;19.032;2023-01-29T07:23:02;11.27;;;3.23;;
40601;SDS011;26310;50.278;19.032;2023-01-29T07:28:05;6.03;;;4.70;;
40601;SDS011;26310;50.278;19.032;2023-01-29T07:33:08;4.27;;;3.70;;
40601;SDS011;26310;50.278;19.032;2023-01-29T07:38:12;5.83;;;5.33;;
40601;SDS011;26310;50.278;19.032;2023-01-29T07:43:14;7.17;;;5.10;;
40601;SDS011;26310;50.278;19.032;2023-01-29T07:48:17;8.97;;;5.03;;
40601;SDS011;26310;50.278;19.032;2023-01-29T07:53:20;6.07;;;4.10;;
40601;SDS011;26310;50.278;19.032;2023-01-29T07:58:23;8.83;;;4.90;;
40601;SDS011;26310;50.278;19.032;2023-01-29T08:03:26;6.17;;;5.37;;
40601;SDS011;26310;50.278;19.032;2023-01-29T08:08:29;5.40;;;4.50;;
40601;SDS011;26310;50.278;19.032;2023-01-29T08:13:32;7.97;;;4.93;;
40601;SDS011;26310;50.278;19.032;2023-01-29T08:18:36;5.70;;;4.67;;
40601;SDS011;26310;50.278;19.032;2023-01-29T08:23:39;5.97;;;3.73;;
40601;SDS011;26310;50.278;19.032;2023-01-29T08:28:42;5.50;;;3.57;;
40601;SDS011;26310;50.278;19.032;2023-01-29T08:33:45;5.50;;;3.13;;
40601;SDS011;26310;50.278;19.032;2023-01-29T08:38:48;5.30;;;3.70;;
40601;SDS011;26310;50.278;19.032;2023-01-29T08:43:51;4.30;;;3.33;;
40601;SDS011;26310;50.278;19.032;2023-01-29T08:48:54;6.27;;;4.17;;
40601;SDS011;26310;50.278;19.032;2023-01-29T08:53:57;5.17;;;3.60;;
40601;SDS011;26310;50.278;19.032;2023-01-29T08:59:00;4.10;;;3.50;;
40601;SDS011;26310;50.278;19.032;2023-01-29T09:04:03;7.00;;;4.70;;
40601;SDS011;26310;50.278;19.032;2023-01-29T09:09:06;5.40;;;3.80;;
40601;SDS011;26310;50.278;19.032;2023-01-29T09:14:09;6.43;;;3.80;;
40601;SDS011;26310;50.278;19.032;2023-01-29T09:19:13;6.80;;;4.10;;
40601;SDS011;26310;50.278;19.032;2023-01-29T09:24:16;6.90;;;4.57;;
40601;SDS011;26310;50.278;19.032;2023-01-29T09:29:19;8.93;;;4.73;;
40601;SDS011;26310;50.278;19.032;2023-01-29T09:34:22;3.27;;;2.93;;
40601;SDS011;26310;50.278;19.032;2023-01-29T09:39:25;4.50;;;3.17;;
40601;SDS011;26310;50.278;19.032;2023-01-29T09:49:59;5.10;;;2.80;;
40601;SDS011;26310;50.278;19.032;2023-01-29T09:55:11;4.00;;;3.37;;
40601;SDS011;26310;50.278;19.032;2023-01-29T10:00:43;2.50;;;2.30;;
40601;SDS011;26310;50.278;19.032;2023-01-29T10:06:20;6.43;;;3.30;;
40601;SDS011;26310;50.278;19.032;2023-01-29T10:16:37;8.13;;;3.90;;
40601;SDS011;26310;50.278;19.032;2023-01-29T10:21:55;9.77;;;4.73;;
40601;SDS011;26310;50.278;19.032;2023-01-29T10:27:22;4.13;;;2.73;;
40601;SDS011;26310;50.278;19.032;2023-01-29T10:32:32;8.17;;;3.37;;
40601;SDS011;26310;50.278;19.032;2023-01-29T10:37:41;3.97;;;3.40;;
40601;SDS011;26310;50.278;19.032;2023-01-29T10:42:49;4.10;;;3.70;;
40601;SDS011;26310;50.278;19.032;2023-01-29T10:53:45;5.80;;;3.50;;
40601;SDS011;26310;50.278;19.032;2023-01-29T10:59:03;4.60;;;3.50;;
40601;SDS011;26310;50.278;19.032;2023-01-29T11:04:25;3.40;;;3.10;;
40601;SDS011;26310;50.278;19.032;2023-01-29T11:09:35;3.47;;;3.10;;
40601;SDS011;26310;50.278;19.032;2023-01-29T11:14:47;7.53;;;3.33;;
40601;SDS011;26310;50.278;19.032;2023-01-29T11:20:05;7.33;;;3.53;;
40601;SDS011;26310;50.278;19.032;2023-01-29T11:25:17;3.40;;;2.87;;
40601;SDS011;26310;50.278;19.032;2023-01-29T11:35:28;9.30;;;4.57;;
40601;SDS011;26310;50.278;19.032;2023-01-29T11:40:32;6.33;;;4.60;;
40601;SDS011;26310;50.278;19.032;2023-01-29T11:45:38;9.20;;;5.87;;
40601;SDS011;26310;50.278;19.032;2023-01-29T11:50:41;8.80;;;6.97;;
40601;SDS011;26310;50.278;19.032;2023-01-29T11:55:44;9.67;;;6.70;;
40601;SDS011;26310;50.278;19.032;2023-01-29T12:00:51;9.13;;;6.53;;
40601;SDS011;26310;50.278;19.032;2023-01-29T12:06:06;5.67;;;4.93;;
40601;SDS011;26310;50.278;19.032;2023-01-29T12:11:29;4.90;;;4.37;;
40601;SDS011;26310;50.278;19.032;2023-01-29T12:16:35;17.17;;;4.50;;
40601;SDS011;26310;50.278;19.032;2023-01-29T12:26:48;7.63;;;4.80;;
40601;SDS011;26310;50.278;19.032;2023-01-29T12:42:25;5.30;;;3.80;;
40601;SDS011;26310;50.278;19.032;2023-01-29T12:47:32;5.40;;;3.63;;
40601;SDS011;26310;50.278;19.032;2023-01-29T12:52:41;5.13;;;3.43;;
40601;SDS011;26310;50.278;19.032;2023-01-29T12:58:04;7.70;;;4.00;;
40601;SDS011;26310;50.278;19.032;2023-01-29T13:03:26;5.70;;;3.60;;
40601;SDS011;26310;50.278;19.032;2023-01-29T13:08:48;3.97;;;3.43;;
40601;SDS011;26310;50.278;19.032;2023-01-29T13:14:15;5.33;;;3.93;;
40601;SDS011;26310;50.278;19.032;2023-01-29T13:19:35;8.53;;;3.50;;
40601;SDS011;26310;50.278;19.032;2023-01-29T13:24:42;8.10;;;4.40;;
40601;SDS011;26310;50.278;19.032;2023-01-29T13:29:59;8.50;;;4.30;;
40601;SDS011;26310;50.278;19.032;2023-01-29T13:35:03;6.80;;;4.43;;
40601;SDS011;26310;50.278;19.032;2023-01-29T13:50:54;8.63;;;5.00;;
40601;SDS011;26310;50.278;19.032;2023-01-29T14:06:56;6.97;;;3.93;;
40601;SDS011;26310;50.278;19.032;2023-01-29T14:11:59;8.53;;;4.70;;
40601;SDS011;26310;50.278;19.032;2023-01-29T14:17:02;8.03;;;4.80;;
40601;SDS011;26310;50.278;19.032;2023-01-29T14:22:05;5.83;;;4.77;;
40601;SDS011;26310;50.278;19.032;2023-01-29T14:27:13;8.33;;;4.43;;
40601;SDS011;26310;50.278;19.032;2023-01-29T14:32:20;6.50;;;4.70;;
40601;SDS011;26310;50.278;19.032;2023-01-29T14:37:37;7.90;;;5.07;;
40601;SDS011;26310;50.278;19.032;2023-01-29T14:52:50;7.93;;;5.50;;
40601;SDS011;26310;50.278;19.032;2023-01-29T14:57:57;11.63;;;5.50;;
40601;SDS011;26310;50.278;19.032;2023-01-29T15:03:00;6.40;;;4.67;;
40601;SDS011;26310;50.278;19.032;2023-01-29T15:08:05;9.73;;;5.60;;
40601;SDS011;26310;50.278;19.032;2023-01-29T15:13:25;7.93;;;5.63;;
40601;SDS011;26310;50.278;19.032;2023-01-29T15:18:42;8.33;;;4.37;;
40601;SDS011;26310;50.278;19.032;2023-01-29T15:23:45;5.33;;;4.17;;
40601;SDS011;26310;50.278;19.032;2023-01-29T15:28:54;11.50;;;5.43;;
40601;SDS011;26310;50.278;19.032;2023-01-29T15:34:05;5.40;;;4.10;;
40601;SDS011;26310;50.278;19.032;2023-01-29T15:44:23;6.67;;;5.07;;
40601;SDS011;26310;50.278;19.032;2023-01-29T15:49:31;5.47;;;4.20;;
40601;SDS011;26310;50.278;19.032;2023-01-29T15:54:35;7.40;;;4.53;;
40601;SDS011;26310;50.278;19.032;2023-01-29T15:59:41;10.53;;;5.33;;
40601;SDS011;26310;50.278;19.032;2023-01-29T16:04:45;9.00;;;5.13;;
40601;SDS011;26310;50.278;19.032;2023-01-29T16:09:49;8.73;;;4.40;;
40601;SDS011;26310;50.278;19.032;2023-01-29T16:14:52;7.40;;;5.07;;
40601;SDS011;26310;50.278;19.032;2023-01-29T16:19:58;7.57;;;5.00;;
40601;SDS011;26310;50.278;19.032;2023-01-29T16:25:06;8.30;;;5.37;;
40601;SDS011;26310;50.278;19.032;2023-01-29T16:30:13;10.40;;;5.40;;
40601;SDS011;26310;50.278;19.032;2023-01-29T16:35:18;20.63;;;5.93;;
40601;SDS011;26310;50.278;19.032;2023-01-29T16:40:29;10.23;;;5.67;;
40601;SDS011;26310;50.278;19.032;2023-01-29T16:45:34;12.40;;;4.80;;
40601;SDS011;26310;50.278;19.032;2023-01-29T16:50:37;17.87;;;6.73;;
40601;SDS011;26310;50.278;19.032;2023-01-29T16:55:55;12.30;;;6.30;;
40601;SDS011;26310;50.278;19.032;2023-01-29T17:01:06;9.10;;;5.33;;
40601;SDS011;26310;50.278;19.032;2023-01-29T17:06:12;12.73;;;6.43;;
40601;SDS011;26310;50.278;19.032;2023-01-29T17:16:32;13.07;;;5.63;;
40601;SDS011;26310;50.278;19.032;2023-01-29T17:21:36;19.93;;;8.20;;
40601;SDS011;26310;50.278;19.032;2023-01-29T17:26:40;13.33;;;5.57;;
40601;SDS011;26310;50.278;19.032;2023-01-29T17:31:43;12.07;;;5.73;;
40601;SDS011;26310;50.278;19.032;2023-01-29T17:36:46;16.13;;;7.43;;
40601;SDS011;26310;50.278;19.032;2023-01-29T17:41:53;14.63;;;7.43;;
40601;SDS011;26310;50.278;19.032;2023-01-29T17:46:57;11.40;;;6.03;;
40601;SDS011;26310;50.278;19.032;2023-01-29T17:52:00;13.93;;;7.37;;
40601;SDS011;26310;50.278;19.032;2023-01-29T17:57:03;12.70;;;6.53;;
40601;SDS011;26310;50.278;19.032;2023-01-29T18:02:06;18.43;;;6.83;;
40601;SDS011;26310;50.278;19.032;2023-01-29T18:07:30;8.43;;;5.87;;
40601;SDS011;26310;50.278;19.032;2023-01-29T18:12:33;10.83;;;7.40;;
40601;SDS011;26310;50.278;19.032;2023-01-29T18:17:38;10.03;;;6.50;;
40601;SDS011;26310;50.278;19.032;2023-01-29T18:22:41;8.67;;;5.73;;
40601;SDS011;26310;50.278;19.032;2023-01-29T18:27:44;11.40;;;5.83;;
40601;SDS011;26310;50.278;19.032;2023-01-29T18:32:47;14.80;;;7.80;;
40601;SDS011;26310;50.278;19.032;2023-01-29T18:37:51;13.23;;;6.00;;
40601;SDS011;26310;50.278;19.032;2023-01-29T18:42:54;12.60;;;7.33;;
40601;SDS011;26310;50.278;19.032;2023-01-29T18:48:00;14.60;;;6.70;;
40601;SDS011;26310;50.278;19.032;2023-01-29T18:53:03;13.73;;;7.97;;
40601;SDS011;26310;50.278;19.032;2023-01-29T18:58:06;10.40;;;5.63;;
40601;SDS011;26310;50.278;19.032;2023-01-29T19:03:29;13.17;;;7.80;;
40601;SDS011;26310;50.278;19.032;2023-01-29T19:08:32;8.50;;;6.37;;
40601;SDS011;26310;50.278;19.032;2023-01-29T19:13:36;11.73;;;6.73;;
40601;SDS011;26310;50.278;19.032;2023-01-29T19:18:40;11.70;;;7.10;;
40601;SDS011;26310;50.278;19.032;2023-01-29T19:23:43;11.70;;;6.60;;
40601;SDS011;26310;50.278;19.032;2023-01-29T19:28:46;11.53;;;7.03;;
40601;SDS011;26310;50.278;19.032;2023-01-29T19:33:49;12.13;;;7.23;;
40601;SDS011;26310;50.278;19.032;2023-01-29T19:38:53;17.27;;;7.73;;
40601;SDS011;26310;50.278;19.032;2023-01-29T19:43:55;11.47;;;5.40;;
40601;SDS011;26310;50.278;19.032;2023-01-29T19:48:58;11.53;;;6.10;;
40601;SDS011;26310;50.278;19.032;2023-01-29T19:54:01;16.43;;;7.57;;
40601;SDS011;26310;50.278;19.032;2023-01-29T19:59:04;11.87;;;6.40;;
40601;SDS011;26310;50.278;19.032;2023-01-29T20:04:08;10.77;;;6.40;;
40601;SDS011;26310;50.278;19.032;2023-01-29T20:09:11;14.80;;;7.87;;
40601;SDS011;26310;50.278;19.032;2023-01-29T20:14:14;14.50;;;8.03;;
40601;SDS011;26310;50.278;19.032;2023-01-29T20:19:17;15.17;;;8.10;;
40601;SDS011;26310;50.278;19.032;2023-01-29T20:24:21;9.00;;;5.57;;
40601;SDS011;26310;50.278;19.032;2023-01-29T20:29:25;14.53;;;7.50;;
40601;SDS011;26310;50.278;19.032;2023-01-29T20:34:27;14.63;;;7.63;;
40601;SDS011;26310;50.278;19.032;2023-01-29T20:39:31;11.73;;;6.50;;
40601;SDS011;26310;50.278;19.032;2023-01-29T20:44:34;10.97;;;6.97;;
40601;SDS011;26310;50.278;19.032;2023-01-29T20:49:37;14.77;;;9.23;;
40601;SDS011;26310;50.278;19.032;2023-01-29T20:54:40;11.70;;;7.33;;
40601;SDS011;26310;50.278;19.032;2023-01-29T20:59:43;13.90;;;7.97;;
40601;SDS011;26310;50.278;19.032;2023-01-29T21:04:46;18.80;;;8.17;;
40601;SDS011;26310;50.278;19.032;2023-01-29T21:09:49;15.83;;;7.37;;
40601;SDS011;26310;50.278;19.032;2023-01-29T21:14:52;14.97;;;8.23;;
40601;SDS011;26310;50.278;19.032;2023-01-29T21:19:55;12.33;;;6.57;;
40601;SDS011;26310;50.278;19.032;2023-01-29T21:24:58;12.47;;;7.47;;
40601;SDS011;26310;50.278;19.032;2023-01-29T21:30:01;12.53;;;7.67;;
40601;SDS011;26310;50.278;19.032;2023-01-29T21:35:04;20.63;;;7.77;;
40601;SDS011;26310;50.278;19.032;2023-01-29T21:40:09;11.57;;;8.03;;
40601;SDS011;26310;50.278;19.032;2023-01-29T21:45:12;13.80;;;8.33;;
40601;SDS011;26310;50.278;19.032;2023-01-29T21:50:15;14.73;;;8.43;;
40601;SDS011;26310;50.278;19.032;2023-01-29T21:55:18;15.07;;;8.90;;
40601;SDS011;26310;50.278;19.032;2023-01-29T22:00:21;15.87;;;8.13;;
40601;SDS011;26310;50.278;19.032;2023-01-29T22:05:24;17.87;;;8.23;;
40601;SDS011;26310;50.278;19.032;2023-01-29T22:10:29;13.97;;;8.57;;
40601;SDS011;26310;50.278;19.032;2023-01-29T22:15:34;10.87;;;6.70;;
40601;SDS011;26310;50.278;19.032;2023-01-29T22:20:37;18.67;;;9.37;;
40601;SDS011;26310;50.278;19.032;2023-01-29T22:25:40;14.07;;;8.63;;
40601;SDS011;26310;50.278;19.032;2023-01-29T22:30:44;14.50;;;8.20;;
40601;SDS011;26310;50.278;19.032;2023-01-29T22:35:51;18.70;;;8.63;;
40601;SDS011;26310;50.278;19.032;2023-01-29T22:40:55;19.70;;;10.17;;
40601;SDS011;26310;50.278;19.032;2023-01-29T22:46:00;20.40;;;7.23;;
40601;SDS011;26310;50.278;19.032;2023-01-29T22:51:08;22.13;;;8.97;;
40601;SDS011;26310;50.278;19.032;2023-01-29T22:56:11;22.57;;;10.50;;
40601;SDS011;26310;50.278;19.032;2023-01-29T23:01:16;10.93;;;7.20;;
40601;SDS011;26310;50.278;19.032;2023-01-29T23:06:19;10.67;;;6.93;;
40601;SDS011;26310;50.278;19.032;2023-01-29T23:11:23;13.57;;;7.13;;
40601;SDS011;26310;50.278;19.032;2023-01-29T23:16:26;17.30;;;7.87;;
40601;SDS011;26310;50.278;19.032;2023-01-29T23:21:29;9.67;;;6.57;;
40601;SDS011;26310;50.278;19.032;2023-01-29T23:26:32;9.93;;;6.73;;
40601;SDS011;26310;50.278;19.032;2023-01-29T23:31:53;15.47;;;8.13;;
40601;SDS011;26310;50.278;19.032;2023-01-29T23:36:56;11.20;;;6.67;;
40601;SDS011;26310;50.278;19.032;2023-01-29T23:41:59;16.20;;;7.33;;
40601;SDS011;26310;50.278;19.032;2023-01-29T23:47:02;19.17;;;9.20;;
40601;SDS011;26310;50.278;19.032;2023-01-29T23:52:05;12.17;;;7.37;;
40601;SDS011;26310;50.278;19.032;2023-01-29T23:57:08;14.00;;;8.57;;
